createdAt,value
2022-08-03T00:00:24.290Z,90.00
2022-08-03T00:02:51.116Z,90.11
2022-08-03T00:05:17.737Z,90.17
2022-08-03T00:07:44.272Z,90.31
2022-08-03T00:10:12.713Z,91.00
2022-08-03T00:12:39.353Z,91.53
2022-08-03T00:15:08.298Z,91.63
2022-08-03T00:17:52.676Z,91.91
2022-08-03T00:20:23.536Z,92.86
2022-08-03T00:22:50.409Z,93.96
2022-08-03T00:25:17.789Z,94.14
2022-08-03T00:27:44.305Z,93.90
2022-08-03T00:30:11.456Z,94.14
2022-08-03T00:32:38.862Z,95.09
2022-08-03T00:35:27.366Z,96.04
2022-08-03T00:37:58.916Z,96.25
2022-08-03T00:40:26.088Z,96.34
2022-08-03T00:42:58.779Z,95.95
2022-08-03T00:45:28.096Z,95.85
2022-08-03T00:47:55.301Z,96.23
2022-08-03T00:50:24.194Z,96.20
2022-08-03T00:52:53.972Z,97.18
2022-08-03T00:55:21.003Z,97.96
2022-08-03T00:57:48.196Z,98.30
2022-08-03T01:00:18.385Z,98.52
2022-08-03T01:02:45.165Z,98.26
2022-08-03T01:05:12.166Z,97.81
2022-08-03T01:07:47.851Z,97.87
2022-08-03T01:10:38.689Z,97.73
2022-08-03T01:14:03.537Z,97.62
2022-08-03T01:16:25.825Z,97.85
2022-08-03T01:19:29.591Z,97.96
2022-08-03T01:22:24.154Z,98.19
2022-08-03T01:25:14.695Z,97.90
2022-08-03T01:28:18.676Z,99.12
2022-08-03T01:30:47.648Z,99.64
2022-08-03T01:33:20.307Z,100.00
2022-08-03T01:36:13.171Z,100.00
2022-08-03T01:38:44.810Z,100.00
2022-08-03T01:41:18.854Z,100.00
2022-08-03T01:44:26.792Z,100.00
2022-08-03T01:46:38.477Z,100.00
2022-08-03T01:49:09.694Z,100.00
2022-08-03T01:51:57.907Z,100.00
2022-08-03T01:54:26.476Z,100.00
2022-08-03T01:56:55.600Z,100.00
2022-08-03T01:59:22.649Z,100.00
2022-08-03T02:02:29.098Z,100.00
2022-08-03T02:04:39.119Z,100.00
2022-08-03T02:07:07.906Z,100.00
2022-08-03T02:09:37.111Z,100.00
2022-08-03T02:12:07.462Z,100.00
2022-08-03T02:14:34.932Z,100.00
2022-08-03T02:17:01.969Z,100.00
2022-08-03T02:19:35.266Z,100.00
2022-08-03T02:22:03.733Z,100.00
2022-08-03T02:24:31.988Z,100.00
2022-08-03T02:26:59.899Z,100.00
2022-08-03T02:29:39.262Z,100.00
2022-08-03T02:32:10.743Z,100.00
2022-08-03T02:34:40.168Z,100.00
2022-08-03T02:37:10.307Z,100.00
2022-08-03T02:39:39.141Z,100.00
2022-08-03T02:42:09.021Z,100.00
2022-08-03T02:44:37.667Z,100.00
2022-08-03T02:47:08.149Z,100.00
2022-08-03T02:49:50.085Z,100.00
2022-08-03T02:52:21.582Z,100.00
2022-08-03T02:54:51.249Z,100.00
2022-08-03T02:57:19.938Z,100.00
2022-08-03T02:59:47.280Z,100.00
2022-08-03T03:02:16.206Z,100.00
2022-08-03T03:05:52.793Z,100.00
2022-08-03T03:07:31.393Z,99.95
2022-08-03T03:10:07.751Z,99.73
2022-08-03T03:12:37.126Z,99.81
2022-08-03T03:15:06.594Z,99.88
2022-08-03T03:17:35.148Z,99.84
2022-08-03T03:20:02.955Z,99.67
2022-08-03T03:22:31.234Z,99.50
2022-08-03T03:24:58.035Z,99.56
2022-08-03T03:27:25.494Z,99.64
2022-08-03T03:29:54.153Z,99.76
2022-08-03T03:32:20.760Z,99.71
2022-08-03T03:34:48.139Z,99.86
2022-08-03T03:37:14.729Z,99.86
2022-08-03T03:39:41.345Z,100.00
2022-08-03T03:42:07.936Z,99.86
2022-08-03T03:44:34.565Z,100.00
2022-08-03T03:47:01.128Z,100.00
2022-08-03T03:49:27.892Z,100.00
2022-08-03T03:51:55.927Z,100.00
2022-08-03T03:54:22.555Z,100.00
2022-08-03T03:56:52.335Z,100.00
2022-08-03T03:59:19.032Z,100.00
2022-08-03T04:01:45.901Z,100.00
2022-08-03T04:04:31.091Z,100.00
2022-08-03T04:07:16.254Z,100.00
2022-08-03T04:10:08.850Z,100.00
2022-08-03T04:12:50.263Z,100.00
2022-08-03T04:15:21.057Z,100.00
2022-08-03T04:17:50.311Z,100.00
2022-08-03T04:20:21.532Z,100.00
2022-08-03T04:22:52.968Z,100.00
2022-08-03T04:25:22.903Z,100.00
2022-08-03T04:28:21.004Z,100.00
2022-08-03T04:30:47.507Z,100.00
2022-08-03T04:33:16.491Z,100.00
2022-08-03T04:36:01.462Z,100.00
2022-08-03T04:38:31.742Z,100.00
2022-08-03T04:40:59.904Z,100.00
2022-08-03T04:43:27.743Z,100.00
2022-08-03T04:45:54.861Z,100.00
2022-08-03T04:48:21.749Z,100.00
2022-08-03T04:50:48.625Z,100.00
2022-08-03T04:53:16.545Z,100.00
2022-08-03T04:55:43.239Z,100.00
2022-08-03T04:58:09.907Z,100.00
2022-08-03T05:00:36.528Z,100.00
2022-08-03T05:03:03.094Z,100.00
2022-08-03T05:05:48.962Z,100.00
2022-08-03T05:08:16.345Z,100.00
2022-08-03T05:10:47.735Z,100.00
2022-08-03T05:13:14.645Z,100.00
2022-08-03T05:15:43.227Z,100.00
2022-08-03T05:18:13.841Z,100.00
2022-08-03T05:20:41.178Z,100.00
2022-08-03T05:23:07.880Z,100.00
2022-08-03T05:25:34.459Z,100.00
2022-08-03T05:28:01.436Z,100.00
2022-08-03T05:30:33.372Z,100.00
2022-08-03T05:33:02.152Z,100.00
2022-08-03T05:36:02.097Z,100.00
2022-08-03T05:38:24.108Z,100.00
2022-08-03T05:40:57.503Z,100.00
2022-08-03T05:43:43.079Z,100.00
2022-08-03T05:46:13.061Z,100.00
2022-08-03T05:48:40.128Z,100.00
2022-08-03T05:51:07.850Z,100.00
2022-08-03T05:53:34.935Z,100.00
2022-08-03T05:56:13.174Z,100.00
2022-08-03T05:58:42.125Z,100.00
2022-08-03T06:01:08.817Z,100.00
2022-08-03T06:03:35.422Z,100.00
2022-08-03T06:06:02.018Z,100.00
2022-08-03T06:08:28.594Z,100.00
2022-08-03T06:10:55.110Z,100.00
2022-08-03T06:13:22.073Z,100.00
2022-08-03T06:15:48.760Z,100.00
2022-08-03T06:18:15.324Z,100.00
2022-08-03T06:20:41.852Z,100.00
2022-08-03T06:23:08.385Z,100.00
2022-08-03T06:25:43.194Z,100.00
2022-08-03T06:28:18.960Z,100.00
2022-08-03T06:30:51.047Z,100.00
2022-08-03T06:33:17.614Z,100.00
2022-08-03T06:35:44.717Z,100.00
2022-08-03T06:38:13.032Z,100.00
2022-08-03T06:40:42.583Z,100.00
2022-08-03T06:43:12.704Z,100.00
2022-08-03T06:45:39.465Z,100.00
2022-08-03T06:48:06.173Z,100.00
2022-08-03T06:50:34.131Z,100.00
2022-08-03T06:53:01.327Z,100.00
2022-08-03T06:55:28.498Z,100.00
2022-08-03T06:57:55.172Z,100.00
2022-08-03T07:00:26.452Z,100.00
2022-08-03T07:02:57.950Z,100.00
2022-08-03T07:05:25.002Z,100.00
2022-08-03T07:07:54.367Z,100.00
2022-08-03T07:10:20.880Z,100.00
2022-08-03T07:12:56.097Z,100.00
2022-08-03T07:15:54.062Z,100.00
2022-08-03T07:18:10.286Z,100.00
2022-08-03T07:20:36.803Z,100.00
2022-08-03T07:23:03.460Z,100.00
2022-08-03T07:25:30.018Z,100.00
2022-08-03T07:27:56.563Z,100.00
2022-08-03T07:30:24.821Z,100.00
2022-08-03T07:32:51.417Z,100.00
2022-08-03T07:35:24.673Z,100.00
2022-08-03T07:37:55.057Z,100.00
2022-08-03T07:40:22.545Z,100.00
2022-08-03T07:42:53.291Z,100.00
2022-08-03T07:45:23.340Z,99.69
2022-08-03T07:47:53.182Z,97.77
2022-08-03T07:50:21.320Z,98.82
2022-08-03T07:52:48.190Z,98.82
2022-08-03T07:55:15.546Z,97.98
2022-08-03T07:57:42.267Z,95.30
2022-08-03T08:00:18.279Z,95.10
2022-08-03T08:02:45.266Z,94.92
2022-08-03T08:05:12.677Z,95.50
2022-08-03T08:07:39.903Z,92.82
2022-08-03T08:10:08.404Z,91.85
2022-08-03T08:12:35.098Z,91.95
2022-08-03T08:15:02.039Z,89.38
2022-08-03T08:17:28.669Z,89.19
2022-08-03T08:19:55.293Z,88.13
2022-08-03T08:22:30.271Z,87.75
2022-08-03T08:24:57.744Z,86.55
2022-08-03T08:27:24.248Z,84.04
2022-08-03T08:29:54.561Z,82.91
2022-08-03T08:32:23.208Z,80.83
2022-08-03T08:34:49.729Z,82.51
2022-08-03T08:37:16.499Z,82.22
2022-08-03T08:39:43.077Z,81.80
2022-08-03T08:42:10.285Z,80.67
2022-08-03T08:44:36.993Z,80.72
2022-08-03T08:47:04.647Z,79.75
2022-08-03T08:49:33.120Z,80.34
2022-08-03T08:52:01.335Z,79.43
2022-08-03T08:54:29.694Z,77.50
2022-08-03T08:57:01.938Z,76.94
2022-08-03T08:59:48.689Z,76.63
2022-08-03T09:02:16.279Z,76.43
2022-08-03T09:04:43.154Z,77.65
2022-08-03T09:07:19.975Z,76.28
2022-08-03T09:10:10.889Z,76.30
2022-08-03T09:12:45.048Z,75.44
2022-08-03T09:15:31.358Z,74.00
2022-08-03T09:18:00.245Z,74.28
2022-08-03T09:20:28.476Z,73.27
2022-08-03T09:23:13.183Z,75.07
2022-08-03T09:25:58.248Z,75.82
2022-08-03T09:28:59.916Z,75.40
2022-08-03T09:31:30.526Z,76.06
2022-08-03T09:34:01.077Z,75.36
2022-08-03T09:36:47.017Z,73.91
2022-08-03T09:39:16.645Z,73.20
2022-08-03T09:41:48.459Z,71.63
2022-08-03T09:44:24.281Z,70.69
2022-08-03T09:46:55.923Z,70.68
2022-08-03T09:49:23.081Z,72.53
2022-08-03T09:52:31.325Z,72.09
2022-08-03T09:54:36.598Z,72.54
2022-08-03T09:57:03.317Z,71.17
2022-08-03T09:59:33.342Z,70.39
2022-08-03T10:02:01.898Z,70.92
2022-08-03T10:04:29.208Z,71.65
2022-08-03T10:07:07.201Z,71.44
2022-08-03T10:09:33.960Z,71.92
2022-08-03T10:12:13.930Z,69.40
2022-08-03T10:14:42.167Z,69.79
2022-08-03T10:17:09.794Z,70.38
2022-08-03T10:19:36.643Z,68.82
2022-08-03T10:22:10.524Z,69.08
2022-08-03T10:24:39.360Z,70.13
2022-08-03T10:27:07.308Z,70.28
2022-08-03T10:29:38.884Z,70.05
2022-08-03T10:32:19.189Z,68.94
2022-08-03T10:34:48.643Z,70.88
2022-08-03T10:37:17.475Z,72.69
2022-08-03T10:39:53.524Z,70.07
2022-08-03T10:42:24.679Z,70.00
2022-08-03T10:45:16.077Z,68.77
2022-08-03T10:47:42.890Z,67.21
2022-08-03T10:50:10.069Z,64.79
2022-08-03T10:52:41.297Z,66.28
2022-08-03T10:55:57.318Z,68.17
2022-08-03T10:58:37.215Z,69.02
2022-08-03T11:01:08.283Z,67.57
2022-08-03T11:03:54.771Z,69.43
2022-08-03T11:06:24.630Z,68.73
2022-08-03T11:09:11.062Z,68.42
2022-08-03T11:11:38.816Z,68.37
2022-08-03T11:14:08.129Z,69.10
2022-08-03T11:16:47.250Z,66.55
2022-08-03T11:19:22.487Z,67.42
2022-08-03T11:21:49.266Z,65.21
2022-08-03T11:24:51.276Z,63.94
2022-08-03T11:27:19.656Z,65.43
2022-08-03T11:30:06.596Z,64.76
2022-08-03T11:32:46.834Z,65.17
2022-08-03T11:35:43.849Z,65.38
2022-08-03T11:38:11.538Z,67.16
2022-08-03T11:40:42.958Z,66.17
2022-08-03T11:43:31.038Z,66.13
2022-08-03T11:46:02.442Z,67.75
2022-08-03T11:48:45.283Z,64.96
2022-08-03T11:51:20.836Z,67.42
2022-08-03T11:53:47.907Z,64.57
2022-08-03T11:56:14.545Z,64.44
2022-08-03T11:59:17.702Z,63.68
2022-08-03T12:01:35.590Z,64.18
2022-08-03T12:04:05.898Z,64.32
2022-08-03T12:06:54.994Z,62.96
2022-08-03T12:09:22.009Z,63.31
2022-08-03T12:12:00.335Z,63.21
2022-08-03T12:14:49.199Z,63.74
2022-08-03T12:17:16.333Z,64.66
2022-08-03T12:19:43.894Z,64.46
2022-08-03T12:22:10.568Z,64.36
2022-08-03T12:24:46.787Z,64.60
2022-08-03T12:27:23.460Z,65.78
2022-08-03T12:29:57.310Z,66.14
2022-08-03T12:32:26.863Z,63.82
2022-08-03T12:34:53.450Z,64.97
2022-08-03T12:37:23.021Z,65.68
2022-08-03T12:40:02.835Z,66.70
2022-08-03T12:42:38.477Z,66.45
2022-08-03T12:45:25.074Z,65.76
2022-08-03T12:47:59.184Z,65.56
2022-08-03T12:50:27.158Z,65.18
2022-08-03T12:52:54.136Z,65.50
2022-08-03T12:55:22.269Z,65.14
2022-08-03T12:57:49.482Z,64.13
2022-08-03T13:00:21.606Z,62.84
2022-08-03T13:03:39.686Z,62.83
2022-08-03T13:05:51.627Z,61.32
2022-08-03T13:08:23.243Z,60.85
2022-08-03T13:10:50.268Z,58.94
2022-08-03T13:13:16.895Z,61.16
2022-08-03T13:15:48.133Z,61.12
2022-08-03T13:18:17.265Z,57.95
2022-08-03T13:20:44.322Z,57.63
2022-08-03T13:23:13.910Z,59.31
2022-08-03T13:25:54.401Z,57.20
2022-08-03T13:28:22.793Z,56.70
2022-08-03T13:30:49.538Z,57.59
2022-08-03T13:33:16.155Z,58.02
2022-08-03T13:35:42.709Z,56.73
2022-08-03T13:38:09.275Z,57.90
2022-08-03T13:40:41.474Z,57.89
2022-08-03T13:43:08.595Z,58.09
2022-08-03T13:45:35.154Z,58.38
2022-08-03T13:48:01.780Z,58.61
2022-08-03T13:50:28.358Z,59.46
2022-08-03T13:52:54.901Z,58.40
2022-08-03T13:55:21.413Z,58.78
2022-08-03T13:58:06.664Z,59.40
2022-08-03T14:00:35.958Z,60.45
2022-08-03T14:03:13.288Z,60.06
2022-08-03T14:05:41.881Z,59.23
2022-08-03T14:08:09.113Z,58.77
2022-08-03T14:10:37.716Z,59.06
2022-08-03T14:13:05.129Z,60.38
2022-08-03T14:15:31.734Z,58.17
2022-08-03T14:17:58.997Z,57.16
2022-08-03T14:20:37.359Z,57.01
2022-08-03T14:23:06.854Z,55.96
2022-08-03T14:25:44.464Z,57.52
2022-08-03T14:28:23.224Z,57.52
2022-08-03T14:30:54.715Z,58.37
2022-08-03T14:33:21.742Z,57.71
2022-08-03T14:35:48.772Z,55.39
2022-08-03T14:38:15.867Z,56.26
2022-08-03T14:40:42.836Z,57.33
2022-08-03T14:43:09.747Z,55.92
2022-08-03T14:45:36.440Z,56.37
2022-08-03T14:50:32.571Z,56.40
2022-08-03T14:50:52.838Z,55.15
2022-08-03T14:53:19.884Z,56.04
2022-08-03T14:55:50.825Z,54.76
2022-08-03T14:58:26.048Z,54.38
2022-08-03T15:00:54.177Z,54.38
2022-08-03T15:03:23.865Z,52.31
2022-08-03T15:05:55.567Z,52.34
2022-08-03T15:08:23.785Z,53.09
2022-08-03T15:10:50.885Z,51.52
2022-08-03T15:13:18.611Z,51.48
2022-08-03T15:15:45.718Z,50.95
2022-08-03T15:18:12.440Z,50.89
2022-08-03T15:20:44.858Z,51.49
2022-08-03T15:23:14.281Z,51.99
2022-08-03T15:26:06.493Z,50.81
2022-08-03T15:28:27.688Z,51.27
2022-08-03T15:30:54.751Z,51.55
2022-08-03T15:33:21.689Z,52.05
2022-08-03T15:35:48.386Z,51.87
2022-08-03T15:38:15.228Z,51.40
2022-08-03T15:40:42.009Z,52.00
2022-08-03T15:43:09.001Z,51.67
2022-08-03T15:45:36.354Z,51.62
2022-08-03T15:48:04.944Z,52.63
2022-08-03T15:50:31.535Z,51.49
2022-08-03T15:52:58.100Z,52.89
2022-08-03T15:55:24.825Z,51.61
2022-08-03T15:59:09.787Z,52.63
2022-08-03T16:00:38.227Z,52.31
2022-08-03T16:03:04.847Z,52.23
2022-08-03T16:05:31.950Z,51.86
2022-08-03T16:08:04.005Z,52.08
2022-08-03T16:10:31.991Z,51.12
2022-08-03T16:12:59.007Z,51.75
2022-08-03T16:15:25.814Z,52.69
2022-08-03T16:17:52.397Z,51.64
2022-08-03T16:20:29.257Z,50.33
2022-08-03T16:23:00.328Z,49.56
2022-08-03T16:25:28.286Z,49.99
2022-08-03T16:28:03.277Z,49.79
2022-08-03T16:30:34.954Z,49.13
2022-08-03T16:33:01.558Z,49.79
2022-08-03T16:35:28.092Z,50.67
2022-08-03T16:37:56.411Z,50.21
2022-08-03T16:40:25.024Z,51.16
2022-08-03T16:42:53.094Z,50.77
2022-08-03T16:45:19.757Z,51.87
2022-08-03T16:47:46.271Z,53.40
2022-08-03T16:50:18.954Z,54.60
2022-08-03T16:52:47.687Z,55.82
2022-08-03T16:55:18.369Z,56.38
2022-08-03T16:58:03.169Z,56.98
2022-08-03T17:00:33.720Z,58.10
2022-08-03T17:03:04.198Z,58.53
2022-08-03T17:05:43.655Z,60.04
2022-08-03T17:08:14.149Z,59.63
2022-08-03T17:10:45.126Z,60.56
2022-08-03T17:13:21.798Z,61.27
2022-08-03T17:16:00.738Z,61.42
2022-08-03T17:18:34.180Z,62.37
2022-08-03T17:21:06.004Z,62.82
2022-08-03T17:23:44.449Z,62.97
2022-08-03T17:26:21.258Z,63.14
2022-08-03T17:28:57.418Z,63.33
2022-08-03T17:31:31.536Z,63.85
2022-08-03T17:34:01.905Z,64.65
2022-08-03T17:36:54.070Z,65.40
2022-08-03T17:39:17.388Z,65.65
2022-08-03T17:41:50.179Z,66.34
2022-08-03T17:44:35.156Z,67.14
2022-08-03T17:47:06.610Z,67.58
2022-08-03T17:49:33.469Z,68.28
2022-08-03T17:52:30.771Z,68.88
2022-08-03T17:55:55.443Z,69.06
2022-08-03T17:58:04.353Z,69.06
2022-08-03T18:00:51.631Z,69.12
2022-08-03T18:03:27.787Z,69.44
2022-08-03T18:06:11.219Z,69.55
2022-08-03T18:08:46.358Z,70.00
2022-08-03T18:11:16.823Z,69.84
2022-08-03T18:14:16.141Z,70.12
2022-08-03T18:16:52.311Z,70.16
2022-08-03T18:19:21.230Z,70.63
2022-08-03T18:22:09.972Z,70.71
2022-08-03T18:24:37.721Z,70.74
2022-08-03T18:27:06.513Z,71.01
2022-08-03T18:29:34.417Z,71.36
2022-08-03T18:32:03.770Z,71.31
2022-08-03T18:34:34.086Z,71.49
2022-08-03T18:37:07.384Z,71.71
2022-08-03T18:39:49.365Z,71.69
2022-08-03T18:42:19.652Z,71.89
2022-08-03T18:44:53.997Z,71.64
2022-08-03T18:50:49.513Z,72.99
2022-08-03T18:53:22.185Z,73.23
2022-08-03T18:56:22.677Z,73.36
2022-08-03T18:59:10.654Z,74.09
2022-08-03T19:02:00.496Z,74.16
2022-08-03T19:04:41.047Z,74.53
2022-08-03T19:07:09.560Z,74.94
2022-08-03T19:09:52.135Z,75.36
2022-08-03T19:12:30.863Z,75.42
2022-08-03T19:15:06.485Z,75.94
2022-08-03T19:17:50.189Z,76.34
2022-08-03T19:20:22.248Z,76.41
2022-08-03T19:22:50.946Z,76.58
2022-08-03T19:25:18.228Z,76.98
2022-08-03T19:27:48.150Z,76.75
2022-08-03T19:30:35.826Z,77.12
2022-08-03T19:33:08.215Z,77.34
2022-08-03T19:35:54.956Z,77.60
2022-08-03T19:38:28.427Z,77.95
2022-08-03T19:40:59.849Z,78.25
2022-08-03T19:43:32.928Z,78.05
2022-08-03T19:46:17.081Z,78.20
2022-08-03T19:48:54.510Z,78.32
2022-08-03T19:51:58.509Z,78.62
2022-08-03T19:54:13.936Z,78.91
2022-08-03T19:56:48.830Z,78.79
2022-08-03T19:59:16.139Z,78.51
2022-08-03T20:01:50.868Z,78.72
2022-08-03T20:04:17.986Z,78.85
2022-08-03T20:06:49.667Z,79.28
2022-08-03T20:09:18.051Z,79.52
2022-08-03T20:11:45.270Z,79.52
2022-08-03T20:14:13.193Z,79.69
2022-08-03T20:16:42.710Z,80.08
2022-08-03T20:19:14.067Z,80.01
2022-08-03T20:21:45.035Z,79.90
2022-08-03T20:24:23.025Z,80.33
2022-08-03T20:26:55.117Z,80.05
2022-08-03T20:30:04.926Z,80.06
2022-08-03T20:32:24.623Z,80.57
2022-08-03T20:34:52.003Z,80.94
2022-08-03T20:37:19.662Z,81.01
2022-08-03T20:39:49.573Z,81.45
2022-08-03T20:42:21.088Z,80.92
2022-08-03T20:45:04.554Z,81.15
2022-08-03T20:47:36.880Z,80.83
2022-08-03T20:50:17.182Z,81.34
2022-08-03T20:52:49.768Z,81.37
2022-08-03T20:55:18.697Z,81.33
2022-08-03T20:58:05.263Z,81.64
2022-08-03T21:00:31.816Z,81.81
2022-08-03T21:02:58.902Z,82.26
2022-08-03T21:05:47.770Z,82.84
2022-08-03T21:08:15.855Z,83.23
2022-08-03T21:10:42.928Z,83.02
2022-08-03T21:13:09.234Z,72.45
2022-08-03T21:13:24.040Z,83.24
2022-08-03T21:16:06.583Z,83.56
2022-08-03T21:18:46.666Z,83.59
2022-08-03T21:21:15.802Z,83.36
2022-08-03T21:23:48.856Z,83.91
2022-08-03T21:26:24.855Z,83.62
2022-08-03T21:28:54.174Z,83.95
2022-08-03T21:31:25.705Z,84.50
2022-08-03T21:33:58.004Z,84.98
2022-08-03T21:36:30.032Z,85.25
2022-08-03T21:38:57.917Z,85.33
2022-08-03T21:41:30.142Z,85.21
2022-08-03T21:43:58.049Z,85.35
2022-08-03T21:46:26.873Z,85.42
2022-08-03T21:48:56.200Z,85.33
2022-08-03T21:51:25.907Z,85.23
2022-08-03T21:54:00.278Z,85.51
2022-08-03T21:56:40.205Z,85.18
2022-08-03T21:59:08.688Z,85.18
2022-08-03T22:01:39.701Z,85.50
2022-08-03T22:04:07.342Z,85.53
2022-08-03T22:06:36.146Z,85.52
2022-08-03T22:09:05.710Z,85.26
2022-08-03T22:11:35.074Z,85.05
2022-08-03T22:14:01.816Z,85.49
2022-08-03T22:16:29.857Z,85.89
2022-08-03T22:18:56.481Z,86.17
2022-08-03T22:21:35.813Z,85.73
2022-08-03T22:24:05.121Z,85.88
2022-08-03T22:26:35.203Z,86.43
2022-08-03T22:29:07.268Z,86.12
2022-08-03T22:31:58.274Z,86.33
2022-08-03T22:34:26.399Z,85.64
2022-08-03T22:36:57.174Z,85.72
2022-08-03T22:39:28.833Z,85.96
2022-08-03T22:41:59.020Z,86.02
2022-08-03T22:44:27.507Z,85.91
2022-08-03T22:46:54.363Z,86.10
2022-08-03T22:49:22.262Z,86.04
2022-08-03T22:51:51.881Z,86.00
2022-08-03T22:54:18.948Z,86.27
2022-08-03T22:56:49.673Z,86.57
2022-08-03T22:59:40.955Z,86.39
2022-08-03T23:02:20.420Z,86.22
2022-08-03T23:04:57.005Z,86.74
2022-08-03T23:07:35.198Z,87.31
2022-08-03T23:10:04.951Z,87.50
2022-08-03T23:12:34.771Z,87.33
2022-08-03T23:15:03.869Z,86.99
2022-08-03T23:17:31.557Z,87.43
2022-08-03T23:20:07.670Z,87.44
2022-08-03T23:22:38.368Z,87.46
2022-08-03T23:25:10.374Z,87.22
2022-08-03T23:27:42.303Z,86.73
2022-08-03T23:30:10.362Z,86.40
2022-08-03T23:32:38.087Z,86.62
2022-08-03T23:36:28.014Z,86.87
2022-08-03T23:38:21.616Z,86.79
2022-08-03T23:40:51.254Z,86.80
2022-08-03T23:43:44.418Z,87.08
2022-08-03T23:46:07.763Z,86.95
2022-08-03T23:48:34.532Z,86.74
2022-08-03T23:51:09.907Z,86.88
2022-08-03T23:53:48.623Z,87.39
2022-08-03T23:56:26.371Z,87.76
2022-08-03T23:59:17.125Z,87.67
